Time;durP1;ratioP1;P1;durP2;ratioP2;P2;SDS_P1;SDS_P2;PMS_P1;PMS_P2;Temp;Humidity;BMP_temperature;BMP_pressure;BME280_temperature;BME280_humidity;BME280_pressure;Samples;Min_cycle;Max_cycle;Signal;HPM_P1;HPM_P2
2020/12/24 00:01:08;;;;;;;33.65;18.23;;;-0.80;87.80;;;;;;5036570;28;20049;-70
2020/12/24 00:03:34;;;;;;;35.03;18.63;;;-0.90;87.70;;;;;;5036830;28;20018;-70
2020/12/24 00:05:59;;;;;;;34.70;18.55;;;-0.80;87.60;;;;;;5036712;28;20029;-70
2020/12/24 00:08:25;;;;;;;33.58;18.30;;;-0.80;87.80;;;;;;5038097;28;20037;-70
2020/12/24 00:10:51;;;;;;;30.55;16.10;;;-0.80;87.60;;;;;;5037187;28;20022;-70
2020/12/24 00:13:17;;;;;;;33.05;17.75;;;-0.80;87.60;;;;;;5037120;28;20032;-70
2020/12/24 00:15:43;;;;;;;31.48;17.45;;;-0.80;87.40;;;;;;5036694;28;20060;-70
2020/12/24 00:18:09;;;;;;;29.55;16.23;;;-0.80;87.40;;;;;;5036555;28;20026;-70
2020/12/24 00:20:35;;;;;;;29.85;16.90;;;-0.80;87.40;;;;;;5036617;28;20075;-70
2020/12/24 00:23:01;;;;;;;29.10;15.10;;;-0.80;87.30;;;;;;5036671;28;20364;-71
2020/12/24 00:25:26;;;;;;;29.65;15.98;;;-0.80;87.20;;;;;;5036775;28;20074;-71
2020/12/24 00:27:52;;;;;;;28.95;15.68;;;-0.80;87.20;;;;;;5050137;28;20123;-71
2020/12/24 00:30:18;;;;;;;33.08;17.45;;;-0.80;87.10;;;;;;5056569;28;20045;-70
2020/12/24 00:32:44;;;;;;;34.90;17.10;;;-0.80;86.70;;;;;;5055787;28;20078;-71
2020/12/24 00:35:09;;;;;;;28.83;15.65;;;-0.80;86.40;;;;;;5056283;28;20033;-71
2020/12/24 00:37:35;;;;;;;30.33;15.43;;;-0.80;86.60;;;;;;5056380;28;20029;-70
2020/12/24 00:40:02;;;;;;;30.05;16.27;;;-0.80;86.60;;;;;;5056456;28;20403;-71
2020/12/24 00:42:28;;;;;;;26.58;15.25;;;-0.80;86.40;;;;;;5056445;28;20447;-70
2020/12/24 00:44:53;;;;;;;28.63;15.63;;;-0.80;86.60;;;;;;5055875;28;20036;-70
2020/12/24 00:47:19;;;;;;;30.88;17.63;;;-0.80;86.50;;;;;;5054349;28;20409;-70
2020/12/24 00:49:45;;;;;;;34.92;18.90;;;-0.80;86.30;;;;;;5055993;28;20375;-70
2020/12/24 00:52:11;;;;;;;31.23;18.25;;;-0.80;86.60;;;;;;5056147;28;20096;-71
2020/12/24 00:54:36;;;;;;;29.77;16.73;;;-0.80;86.40;;;;;;5055102;28;20036;-71
2020/12/24 00:57:02;;;;;;;27.48;16.52;;;-0.80;86.50;;;;;;5053903;28;20021;-71
2020/12/24 00:59:28;;;;;;;27.50;15.48;;;-0.70;86.40;;;;;;5053552;28;20459;-70
2020/12/24 01:01:54;;;;;;;27.40;15.75;;;-0.70;86.20;;;;;;5053873;28;20040;-70
2020/12/24 01:04:19;;;;;;;29.13;16.30;;;-0.70;86.00;;;;;;5036849;28;20060;-70
2020/12/24 01:06:45;;;;;;;30.27;16.70;;;-0.80;86.00;;;;;;5033899;28;20025;-71
2020/12/24 01:09:11;;;;;;;25.73;15.20;;;-0.90;86.30;;;;;;5033849;28;20044;-70
2020/12/24 01:11:36;;;;;;;29.65;16.58;;;-0.90;86.60;;;;;;5033788;28;20384;-70
2020/12/24 01:14:02;;;;;;;28.55;16.42;;;-0.90;86.70;;;;;;5033703;28;20105;-70
2020/12/24 01:16:28;;;;;;;27.85;15.77;;;-0.80;86.60;;;;;;5033697;28;20030;-70
2020/12/24 01:18:53;;;;;;;27.80;16.02;;;-0.80;86.60;;;;;;5044522;28;20039;-70
2020/12/24 01:21:19;;;;;;;25.02;14.13;;;-0.80;86.50;;;;;;5053631;28;20426;-70
2020/12/24 01:23:45;;;;;;;24.73;14.57;;;-0.80;86.50;;;;;;5053440;28;20028;-71
2020/12/24 01:26:10;;;;;;;29.15;16.10;;;-0.80;86.50;;;;;;5053495;28;20100;-71
2020/12/24 01:28:36;;;;;;;30.23;16.95;;;-0.90;86.60;;;;;;5051617;28;20379;-71
2020/12/24 01:31:04;;;;;;;30.73;17.42;;;-0.90;86.60;;;;;;5053452;28;20040;-71
2020/12/24 01:33:30;;;;;;;28.27;17.02;;;-0.90;86.80;;;;;;5053471;28;20025;-71
2020/12/24 01:35:58;;;;;;;29.63;17.35;;;-0.90;86.60;;;;;;5053195;28;20094;-71
2020/12/24 01:38:23;;;;;;;27.13;16.13;;;-0.80;86.80;;;;;;5053270;28;20029;-71
2020/12/24 01:40:56;;;;;;;26.35;15.00;;;-0.80;86.80;;;;;;5053156;28;20842;-71
2020/12/24 01:43:22;;;;;;;26.55;15.32;;;-0.80;86.70;;;;;;5043777;28;20472;-72
2020/12/24 01:45:57;;;;;;;30.55;15.98;;;-0.80;86.60;;;;;;5032601;28;20033;-72
2020/12/24 01:48:24;;;;;;;27.60;16.23;;;-0.80;86.80;;;;;;5033558;28;20029;-73
2020/12/24 01:50:50;;;;;;;29.65;17.05;;;-0.80;86.90;;;;;;5033403;28;20056;-73
2020/12/24 01:53:21;;;;;;;24.88;15.05;;;-0.90;87.20;;;;;;5033404;28;20053;-73
2020/12/24 01:55:47;;;;;;;;;;;-0.90;87.30;;;;;;5033507;28;20029;-73
2020/12/24 01:58:13;;;;;;;26.20;15.10;;;-0.80;87.70;;;;;;5039556;28;19908;-72
2020/12/24 02:00:39;;;;;;;26.80;14.73;;;-0.80;87.30;;;;;;5052764;28;20124;-72
2020/12/24 02:03:05;;;;;;;26.75;15.90;;;-0.80;87.10;;;;;;5053548;28;20477;-73
2020/12/24 02:05:31;;;;;;;29.42;15.52;;;-0.90;87.20;;;;;;5053267;28;20498;-73
2020/12/24 02:07:56;;;;;;;27.17;15.55;;;-0.80;87.30;;;;;;5053102;28;20079;-73
2020/12/24 02:10:24;;;;;;;27.05;15.32;;;-0.90;87.40;;;;;;5052821;28;20017;-73
2020/12/24 02:12:49;;;;;;;26.38;14.98;;;-0.90;87.40;;;;;;5050676;28;20025;-73
2020/12/24 02:15:15;;;;;;;27.85;15.73;;;-0.90;87.60;;;;;;5032772;28;20112;-73
2020/12/24 02:17:41;;;;;;;27.33;15.00;;;-0.80;87.50;;;;;;5032899;28;20040;-72
2020/12/24 02:20:06;;;;;;;24.35;14.10;;;-0.80;87.30;;;;;;5032773;28;20473;-72
2020/12/24 02:22:32;;;;;;;25.75;14.48;;;-0.80;87.10;;;;;;5032709;28;20080;-72
2020/12/24 02:24:58;;;;;;;23.83;13.85;;;-0.70;87.10;;;;;;5032751;28;20032;-72
2020/12/24 02:27:23;;;;;;;25.23;14.20;;;-0.70;87.00;;;;;;5032856;28;20516;-72
2020/12/24 02:29:49;;;;;;;25.38;14.27;;;-0.70;86.80;;;;;;5033031;28;20029;-72
2020/12/24 02:32:15;;;;;;;23.23;13.68;;;-0.70;86.60;;;;;;5032739;28;20379;-72
2020/12/24 02:34:41;;;;;;;24.63;14.15;;;-0.70;86.70;;;;;;5032650;28;20025;-72
2020/12/24 02:37:09;;;;;;;22.98;14.15;;;-0.80;86.90;;;;;;5032760;28;20033;-72
2020/12/24 02:39:35;;;;;;;28.55;14.57;;;-0.80;86.60;;;;;;5031301;28;20053;-73
2020/12/24 02:42:01;;;;;;;24.02;14.25;;;-0.70;86.90;;;;;;5032618;28;20028;-72
2020/12/24 02:44:26;;;;;;;24.25;14.18;;;-0.80;86.90;;;;;;5044956;28;20016;-71
2020/12/24 02:46:52;;;;;;;22.50;13.52;;;-0.80;86.80;;;;;;5052085;28;20524;-72
2020/12/24 02:49:18;;;;;;;25.48;14.02;;;-0.80;86.50;;;;;;5052250;28;20021;-72
2020/12/24 02:51:43;;;;;;;24.65;15.13;;;-0.80;86.50;;;;;;5052113;28;20025;-72
2020/12/24 02:54:09;;;;;;;23.98;14.45;;;-0.80;86.50;;;;;;5052750;28;20035;-71
2020/12/24 02:56:35;;;;;;;25.48;13.93;;;-0.80;86.80;;;;;;5053604;28;20037;-72
2020/12/24 02:59:00;;;;;;;23.20;14.65;;;-0.80;86.60;;;;;;5045568;28;20034;-72
2020/12/24 03:01:26;;;;;;;24.35;14.05;;;-0.80;86.50;;;;;;5034253;28;20053;-72
2020/12/24 03:03:52;;;;;;;19.13;12.35;;;-0.80;86.60;;;;;;5034223;28;20027;-72
2020/12/24 03:06:18;;;;;;;24.70;14.00;;;-0.80;86.80;;;;;;5034152;28;20359;-72
2020/12/24 03:08:43;;;;;;;24.20;14.30;;;-0.70;86.60;;;;;;5032360;28;20044;-72
2020/12/24 03:11:09;;;;;;;24.55;15.25;;;-0.70;86.50;;;;;;5033706;28;20033;-72
2020/12/24 03:13:35;;;;;;;28.08;15.32;;;-0.70;86.40;;;;;;5032852;28;20095;-72
2020/12/24 03:16:00;;;;;;;26.55;15.60;;;-0.80;86.40;;;;;;5033195;28;20419;-72
2020/12/24 03:18:26;;;;;;;23.42;13.57;;;-0.80;86.30;;;;;;5033858;28;20037;-72
2020/12/24 03:20:52;;;;;;;23.35;13.38;;;-0.80;86.40;;;;;;5033522;28;20490;-72
2020/12/24 03:23:17;;;;;;;20.90;13.40;;;-0.80;86.40;;;;;;5033475;28;20026;-72
2020/12/24 03:25:43;;;;;;;22.27;12.88;;;-0.80;86.30;;;;;;5033669;28;20022;-72
2020/12/24 03:28:09;;;;;;;22.13;12.73;;;-0.80;86.50;;;;;;5033516;28;20036;-72
2020/12/24 03:30:34;;;;;;;22.48;13.55;;;-0.80;86.40;;;;;;5035081;28;20345;-72
2020/12/24 03:33:00;;;;;;;17.83;10.93;;;-0.70;86.30;;;;;;5043997;28;20091;-72
2020/12/24 03:35:26;;;;;;;22.60;14.10;;;-0.70;86.30;;;;;;5033650;28;20487;-72
2020/12/24 03:37:52;;;;;;;19.85;13.43;;;-0.70;86.20;;;;;;5033358;28;20448;-72
2020/12/24 03:40:17;;;;;;;18.48;12.20;;;-0.70;86.30;;;;;;5034135;28;20022;-72
2020/12/24 03:42:43;;;;;;;22.98;14.90;;;-0.70;86.20;;;;;;5033683;28;20029;-72
2020/12/24 03:45:09;;;;;;;30.02;17.25;;;-0.60;86.20;;;;;;5034144;28;20025;-72
2020/12/24 03:47:34;;;;;;;28.20;18.38;;;-0.60;86.40;;;;;;5033553;28;20478;-72
2020/12/24 03:50:00;;;;;;;31.48;19.92;;;-0.60;86.10;;;;;;5045002;28;20095;-72
2020/12/24 03:52:26;;;;;;;27.58;18.48;;;-0.60;86.10;;;;;;5053007;28;20497;-72
2020/12/24 03:54:52;;;;;;;25.63;16.55;;;-0.60;86.00;;;;;;5052336;28;20032;-72
2020/12/24 03:57:18;;;;;;;23.85;15.10;;;-0.70;85.80;;;;;;5051539;28;20032;-72
2020/12/24 03:59:44;;;;;;;23.73;15.27;;;-0.60;86.00;;;;;;5051241;28;20033;-72
2020/12/24 04:02:09;;;;;;;27.58;17.40;;;-0.60;85.80;;;;;;5034080;28;20030;-73
2020/12/24 04:04:35;;;;;;;26.63;16.10;;;-0.50;85.70;;;;;;5039248;28;20071;-72
2020/12/24 04:07:00;;;;;;;25.77;14.85;;;-0.60;85.80;;;;;;5046809;28;20025;-72
2020/12/24 04:09:26;;;;;;;25.02;14.10;;;-0.60;85.70;;;;;;5048008;28;20025;-72
2020/12/24 04:11:52;;;;;;;23.67;13.88;;;-0.60;85.70;;;;;;5035038;28;20033;-72
2020/12/24 04:14:17;;;;;;;29.08;16.20;;;-0.50;85.50;;;;;;5035035;28;20075;-72
2020/12/24 04:16:43;;;;;;;30.30;17.23;;;-0.70;85.70;;;;;;5040130;28;20037;-73
2020/12/24 04:19:09;;;;;;;29.60;16.35;;;-0.60;85.80;;;;;;5041328;28;20033;-73
2020/12/24 04:21:35;;;;;;;32.78;18.13;;;-0.60;85.70;;;;;;5033876;28;20029;-73
2020/12/24 04:24:00;;;;;;;35.75;17.38;;;-0.60;85.50;;;;;;5033878;28;20074;-73
2020/12/24 04:26:26;;;;;;;30.95;17.85;;;-0.50;85.70;;;;;;5032680;28;20056;-73
2020/12/24 04:28:52;;;;;;;31.45;17.67;;;-0.50;85.80;;;;;;5033446;28;20025;-73
2020/12/24 04:31:18;;;;;;;32.90;17.90;;;-0.60;85.80;;;;;;5034819;28;20028;-73
2020/12/24 04:33:44;;;;;;;40.70;25.00;;;-0.50;85.50;;;;;;5034388;28;20037;-73
2020/12/24 04:36:13;;;;;;;43.35;26.92;;;-0.60;85.30;;;;;;5034139;28;20098;-73
2020/12/24 04:38:39;;;;;;;47.35;30.48;;;-0.70;85.50;;;;;;5034722;28;20033;-73
2020/12/24 14:31:58;;;;;;;432.55;103.88;;;0.50;92.50;;;;;;5071357;28;20429;-81
2020/12/24 14:34:24;;;;;;;384.92;91.38;;;0.40;92.50;;;;;;5071159;28;20394;-82
2020/12/24 14:36:57;;;;;;;393.27;90.25;;;0.50;92.50;;;;;;5070649;28;20083;-80
2020/12/24 14:39:27;;;;;;;385.15;85.55;;;0.50;92.50;;;;;;5069375;28;20024;-81
2020/12/24 14:41:53;;;;;;;451.98;105.05;;;0.50;92.50;;;;;;5069870;28;20103;-82
2020/12/24 14:44:19;;;;;;;456.98;102.93;;;0.50;92.40;;;;;;5070652;28;20483;-82
2020/12/24 14:46:46;;;;;;;427.17;95.03;;;0.60;92.40;;;;;;5070330;28;20104;-82
2020/12/24 14:49:13;;;;;;;425.58;97.07;;;0.60;92.30;;;;;;5070787;28;20040;-82
2020/12/24 14:51:40;;;;;;;348.80;81.63;;;0.60;92.20;;;;;;5069126;28;20079;-81
2020/12/24 14:54:07;;;;;;;304.42;76.88;;;0.70;92.20;;;;;;5069130;28;20371;-80
2020/12/24 14:56:33;;;;;;;319.15;73.97;;;0.70;92.10;;;;;;5070321;28;20490;-81
2020/12/24 14:58:58;;;;;;;314.67;83.95;;;0.80;92.00;;;;;;5070231;28;20040;-81
2020/12/24 15:01:24;;;;;;;327.67;79.55;;;0.80;91.80;;;;;;5070030;28;20028;-81
2020/12/24 15:03:50;;;;;;;327.70;82.00;;;0.80;91.80;;;;;;5070065;28;20056;-81
2020/12/24 15:06:17;;;;;;;381.45;90.72;;;0.90;91.50;;;;;;5050081;28;20056;-82
2020/12/24 15:08:44;;;;;;;384.50;90.65;;;0.90;91.50;;;;;;5050085;28;20029;-82
2020/12/24 15:11:10;;;;;;;349.90;87.07;;;0.90;91.50;;;;;;5049983;28;20035;-83
2020/12/24 15:13:36;;;;;;;297.25;77.35;;;0.90;91.40;;;;;;5050142;28;20079;-83
2020/12/24 15:16:03;;;;;;;246.38;64.28;;;1.00;91.40;;;;;;5049139;28;20022;-82
2020/12/24 15:18:29;;;;;;;190.15;51.17;;;1.00;91.10;;;;;;5048823;28;20028;-84
2020/12/24 15:20:55;;;;;;;169.85;46.05;;;1.00;91.20;;;;;;5050184;28;20049;-84
2020/12/24 15:23:22;;;;;;;135.07;40.63;;;1.00;91.10;;;;;;5048876;28;20029;-83
2020/12/24 15:25:48;;;;;;;153.32;42.70;;;1.00;91.00;;;;;;5048649;28;20022;-80
2020/12/24 15:28:14;;;;;;;185.20;47.83;;;1.00;90.90;;;;;;5049977;28;20017;-82
2020/12/24 15:30:40;;;;;;;164.77;48.10;;;1.00;90.80;;;;;;5049705;28;20068;-83
2020/12/24 15:33:05;;;;;;;203.48;50.55;;;1.00;90.80;;;;;;5048612;28;20368;-83
2020/12/24 15:35:50;;;;;;;231.10;55.75;;;1.00;90.90;;;;;;5049937;28;20091;-83
2020/12/24 15:38:15;;;;;;;290.23;71.07;;;1.10;90.90;;;;;;5049661;28;20483;-83
2020/12/24 15:40:43;;;;;;;311.10;69.32;;;1.00;90.90;;;;;;5048577;28;20064;-84
2020/12/24 15:43:09;;;;;;;276.08;65.97;;;1.00;91.00;;;;;;5036484;28;20034;-83
2020/12/24 15:45:36;;;;;;;256.13;61.00;;;1.10;91.10;;;;;;5035215;28;20112;-82
2020/12/24 15:48:02;;;;;;;279.27;69.65;;;1.10;91.00;;;;;;5035094;28;20108;-83
2020/12/24 15:50:28;;;;;;;244.00;62.45;;;1.10;90.90;;;;;;5036338;28;20029;-83
2020/12/24 15:52:54;;;;;;;281.92;80.72;;;1.10;90.90;;;;;;5034929;28;20032;-83
2020/12/24 15:55:24;;;;;;;293.42;84.35;;;1.10;90.70;;;;;;5035086;28;20072;-83
2020/12/24 15:57:51;;;;;;;285.88;82.40;;;1.10;90.80;;;;;;5036418;28;20033;-83
2020/12/24 16:00:18;;;;;;;266.10;81.88;;;1.10;90.80;;;;;;5036250;28;20104;-83
2020/12/24 16:02:43;;;;;;;275.45;80.03;;;1.00;90.50;;;;;;5035040;28;20027;-83
2020/12/24 16:05:09;;;;;;;254.52;75.82;;;1.10;90.60;;;;;;5034735;28;20033;-82
2020/12/24 16:07:38;;;;;;;305.55;91.47;;;1.10;90.70;;;;;;5035867;28;20033;-83
2020/12/24 16:10:05;;;;;;;316.55;93.07;;;1.00;90.60;;;;;;5034615;28;20055;-82
2020/12/24 16:12:31;;;;;;;333.08;93.95;;;1.10;90.70;;;;;;5034701;28;20022;-81
2020/12/24 16:14:57;;;;;;;316.33;89.47;;;1.10;90.70;;;;;;5035749;28;20048;-83
2020/12/24 16:17:23;;;;;;;321.48;92.10;;;1.10;90.70;;;;;;5035773;28;20060;-83
2020/12/24 16:19:49;;;;;;;307.98;89.70;;;1.10;90.70;;;;;;5035754;28;20414;-83
2020/12/24 16:22:14;;;;;;;285.02;79.13;;;1.10;90.80;;;;;;5033874;28;20029;-82
2020/12/24 16:24:40;;;;;;;256.38;76.20;;;1.10;90.80;;;;;;5035090;28;20055;-82
2020/12/24 16:27:06;;;;;;;288.67;84.72;;;1.10;90.70;;;;;;5034064;28;20075;-82
2020/12/24 16:29:32;;;;;;;278.85;80.82;;;1.10;90.80;;;;;;5033562;28;20021;-81
2020/12/24 16:31:59;;;;;;;288.15;84.13;;;1.10;90.80;;;;;;5033590;28;20018;-82
2020/12/24 16:34:24;;;;;;;288.33;87.20;;;1.20;90.80;;;;;;5034890;28;20033;-82
2020/12/24 16:36:57;;;;;;;302.00;89.60;;;1.20;90.80;;;;;;5049494;28;20025;-82
2020/12/24 16:39:23;;;;;;;301.40;84.10;;;1.20;90.80;;;;;;5054806;28;20025;-81
2020/12/24 16:42:01;;;;;;;313.30;92.28;;;1.20;90.80;;;;;;5047415;28;20026;-82
2020/12/24 16:44:27;;;;;;;337.08;96.13;;;1.20;90.90;;;;;;5034878;28;20024;-82
2020/12/24 16:46:57;;;;;;;324.90;93.40;;;1.20;90.70;;;;;;5033586;28;20438;-81
2020/12/24 16:49:24;;;;;;;329.85;98.80;;;1.20;90.70;;;;;;5034799;28;20537;-81
2020/12/24 16:51:49;;;;;;;312.80;94.72;;;1.20;90.70;;;;;;5052892;28;20115;-81
2020/12/24 16:54:15;;;;;;;264.27;82.07;;;1.20;90.80;;;;;;5053699;28;20017;-82
2020/12/24 16:56:41;;;;;;;253.82;80.72;;;1.20;90.70;;;;;;5053353;28;20075;-81
2020/12/24 16:59:06;;;;;;;287.30;85.72;;;1.30;90.70;;;;;;5054621;28;20092;-81
2020/12/24 17:01:32;;;;;;;279.48;82.03;;;1.30;90.70;;;;;;5054327;28;20499;-81
2020/12/24 17:03:58;;;;;;;302.60;89.00;;;1.30;90.70;;;;;;5053250;28;20024;-82
2020/12/24 17:06:23;;;;;;;261.55;76.38;;;1.30;90.60;;;;;;5052970;28;20049;-82
2020/12/24 17:08:49;;;;;;;221.18;66.57;;;1.30;90.60;;;;;;5054436;28;20033;-82
2020/12/24 17:11:21;;;;;;;195.70;61.63;;;1.30;90.60;;;;;;5054260;28;20375;-81
2020/12/24 17:13:48;;;;;;;273.58;74.20;;;1.40;90.60;;;;;;5053045;28;20028;-82
2020/12/24 17:16:17;;;;;;;260.85;67.80;;;1.30;90.50;;;;;;5053083;28;20171;-83
2020/12/24 17:18:51;;;;;;;292.42;69.10;;;1.40;90.70;;;;;;5054161;28;20022;-82
2020/12/24 17:21:30;;;;;;;298.10;71.15;;;1.40;90.60;;;;;;5054046;28;20526;-82
2020/12/24 17:23:56;;;;;;;290.60;70.45;;;1.40;90.60;;;;;;5052828;28;20029;-82
2020/12/24 17:26:24;;;;;;;205.07;55.80;;;1.40;90.60;;;;;;5052901;28;20025;-82
2020/12/24 17:28:50;;;;;;;175.45;50.50;;;1.40;90.60;;;;;;5053929;28;20043;-83
2020/12/24 17:31:19;;;;;;;152.48;45.95;;;1.30;90.60;;;;;;5053648;28;20080;-82
2020/12/24 17:33:49;;;;;;;149.15;42.60;;;1.40;90.60;;;;;;5052520;28;20491;-81
2020/12/24 17:36:15;;;;;;;;;;;1.40;90.60;;;;;;5053890;28;20029;-83
2020/12/24 17:38:41;;;;;;;119.75;37.63;;;1.30;90.60;;;;;;5052496;28;19970;-83
2020/12/24 17:41:10;;;;;;;136.63;39.92;;;1.30;90.60;;;;;;5052481;28;20025;-83
2020/12/24 17:43:37;;;;;;;199.45;47.28;;;1.20;90.80;;;;;;5053605;28;20075;-82
2020/12/24 17:46:03;;;;;;;192.50;46.08;;;1.20;90.90;;;;;;5054126;28;20028;-83
2020/12/24 17:48:29;;;;;;;175.25;48.08;;;1.20;90.90;;;;;;5054058;28;20024;-82
2020/12/24 17:50:54;;;;;;;172.77;44.88;;;1.20;90.90;;;;;;5052369;28;20032;-83
2020/12/24 17:53:20;;;;;;;140.80;43.40;;;1.20;90.90;;;;;;5053122;28;20025;-81
2020/12/24 17:55:46;;;;;;;133.75;40.53;;;1.20;90.90;;;;;;5051048;28;20024;-81
2020/12/24 17:58:12;;;;;;;173.60;46.40;;;1.30;90.90;;;;;;5052449;28;20028;-83
2020/12/24 18:00:38;;;;;;;125.43;37.15;;;1.20;90.90;;;;;;5052541;28;20474;-82
2020/12/24 18:03:03;;;;;;;202.98;53.05;;;1.20;90.90;;;;;;5052427;28;20471;-82
2020/12/24 18:05:29;;;;;;;152.60;44.20;;;1.30;90.90;;;;;;5053223;28;20120;-83
2020/12/24 18:07:55;;;;;;;179.32;46.38;;;1.20;91.00;;;;;;5052633;28;20032;-81
2020/12/24 18:10:20;;;;;;;164.25;45.53;;;1.20;91.00;;;;;;5053510;28;20021;-82
2020/12/24 18:12:46;;;;;;;136.93;40.78;;;1.20;91.00;;;;;;5052161;28;20079;-82
2020/12/24 18:15:12;;;;;;;130.52;39.78;;;1.20;91.20;;;;;;5053473;28;20021;-82
2020/12/24 18:17:37;;;;;;;199.13;48.35;;;1.20;91.20;;;;;;5052298;28;20029;-81
2020/12/24 18:20:04;;;;;;;366.10;74.32;;;1.20;91.20;;;;;;5052238;28;20082;-80
2020/12/24 18:22:31;;;;;;;260.25;58.90;;;1.20;91.20;;;;;;5052105;28;20032;-81
2020/12/24 18:24:57;;;;;;;195.45;52.33;;;1.20;91.30;;;;;;5053167;28;20024;-82
2020/12/24 18:27:23;;;;;;;170.07;45.53;;;1.20;91.30;;;;;;5052044;28;20496;-82
2020/12/24 18:29:48;;;;;;;148.70;41.55;;;1.20;91.40;;;;;;5053058;28;20032;-82
2020/12/24 18:32:14;;;;;;;124.70;38.88;;;1.20;91.30;;;;;;5051762;28;20036;-82
2020/12/24 18:34:40;;;;;;;110.43;36.05;;;1.20;91.30;;;;;;5053327;28;20048;-82
2020/12/24 18:37:06;;;;;;;93.60;32.17;;;1.20;91.40;;;;;;5052133;28;20459;-83
2020/12/24 18:39:31;;;;;;;128.18;40.05;;;1.20;91.30;;;;;;5052225;28;20029;-82
2020/12/24 18:41:57;;;;;;;168.50;47.05;;;1.20;91.30;;;;;;5053423;28;20025;-83
2020/12/24 18:44:23;;;;;;;269.25;57.42;;;1.30;91.30;;;;;;5051951;28;20032;-83
2020/12/24 18:46:56;;;;;;;320.48;68.65;;;1.20;91.30;;;;;;5053126;28;20032;-82
2020/12/24 18:49:25;;;;;;;444.17;95.90;;;1.30;91.40;;;;;;5052171;28;20029;-83
2020/12/24 18:51:52;;;;;;;399.67;86.13;;;1.20;91.40;;;;;;5053236;28;20382;-83
2020/12/24 18:54:18;;;;;;;406.13;90.55;;;1.30;91.40;;;;;;5053268;28;20100;-83
2020/12/24 18:56:45;;;;;;;494.80;101.60;;;1.30;91.40;;;;;;5051659;28;20527;-82
2020/12/24 18:59:11;;;;;;;499.33;104.00;;;1.30;91.40;;;;;;5053184;28;20151;-82
2020/12/24 19:01:37;;;;;;;538.05;111.25;;;1.30;91.40;;;;;;5052980;28;20056;-82
2020/12/24 19:04:02;;;;;;;465.88;99.35;;;1.20;91.40;;;;;;5052014;28;20037;-82
2020/12/24 19:06:28;;;;;;;481.42;96.90;;;1.30;91.40;;;;;;5051744;28;20029;-82
2020/12/24 19:08:56;;;;;;;402.27;89.35;;;1.30;91.30;;;;;;5052870;28;20364;-82
2020/12/24 19:11:26;;;;;;;430.20;89.80;;;1.30;91.50;;;;;;5051663;28;20036;-82
2020/12/24 19:13:52;;;;;;;401.42;85.97;;;1.30;91.20;;;;;;5047183;28;20017;-83
2020/12/24 19:16:18;;;;;;;333.42;71.32;;;1.40;91.20;;;;;;5052122;28;20112;-83
2020/12/24 19:18:44;;;;;;;250.52;61.70;;;1.40;91.20;;;;;;5055067;28;20021;-83
2020/12/24 19:21:14;;;;;;;319.83;72.63;;;1.40;91.20;;;;;;5055503;28;20078;-82
2020/12/24 19:23:40;;;;;;;401.52;90.90;;;1.30;91.10;;;;;;5055510;28;20111;-81
2020/12/24 19:26:07;;;;;;;328.17;81.65;;;1.40;91.20;;;;;;5056709;28;20105;-81
2020/12/24 19:28:33;;;;;;;377.27;86.45;;;1.30;91.20;;;;;;5055719;28;20029;-82
2020/12/24 19:30:59;;;;;;;346.33;75.80;;;1.30;91.20;;;;;;5056514;28;20437;-83
2020/12/24 19:33:24;;;;;;;461.23;104.10;;;1.30;91.40;;;;;;5055338;28;20036;-82
2020/12/24 19:35:50;;;;;;;543.85;135.20;;;1.30;91.40;;;;;;5056865;28;20516;-82
2020/12/24 19:38:16;;;;;;;477.05;104.82;;;1.30;91.50;;;;;;5056444;28;20021;-82
2020/12/24 19:40:42;;;;;;;444.77;102.00;;;1.30;91.50;;;;;;5056524;28;20143;-80
2020/12/24 19:43:07;;;;;;;431.42;97.57;;;1.30;91.50;;;;;;5055437;28;20417;-82
2020/12/24 19:45:33;;;;;;;469.13;103.60;;;1.30;91.50;;;;;;5055115;28;20029;-82
2020/12/24 19:47:59;;;;;;;456.85;97.20;;;1.30;91.50;;;;;;5056635;28;20025;-82
2020/12/24 19:50:24;;;;;;;444.85;96.18;;;1.40;91.40;;;;;;5056240;28;20025;-82
2020/12/24 19:52:50;;;;;;;438.58;91.50;;;1.40;91.40;;;;;;5056181;28;20403;-82
2020/12/24 19:55:16;;;;;;;428.58;88.57;;;1.40;91.40;;;;;;5056492;28;20021;-83
2020/12/24 19:57:41;;;;;;;355.58;79.20;;;1.40;91.30;;;;;;5054921;28;20025;-83
2020/12/24 20:00:07;;;;;;;316.83;72.78;;;1.40;91.30;;;;;;5056155;28;20102;-82
2020/12/24 20:02:33;;;;;;;329.45;72.53;;;1.50;91.30;;;;;;5056069;28;20021;-82
2020/12/24 20:04:58;;;;;;;347.73;76.07;;;1.50;91.50;;;;;;5056085;28;20095;-83
2020/12/24 20:07:24;;;;;;;327.08;76.30;;;1.50;91.30;;;;;;5055937;28;20060;-82
2020/12/24 20:09:50;;;;;;;313.58;73.55;;;1.40;91.40;;;;;;5054576;28;20052;-83
2020/12/24 20:12:16;;;;;;;260.45;63.13;;;1.50;91.40;;;;;;5055846;28;20371;-82
2020/12/24 20:14:41;;;;;;;192.90;54.63;;;1.50;91.40;;;;;;5054682;28;20471;-83
2020/12/24 20:17:08;;;;;;;181.57;53.28;;;1.50;91.40;;;;;;5054461;28;20047;-82
2020/12/24 20:19:34;;;;;;;198.80;56.20;;;1.50;91.40;;;;;;5055849;28;20048;-83
2020/12/24 20:22:01;;;;;;;191.02;56.22;;;1.50;91.40;;;;;;5054431;28;20044;-83
2020/12/24 20:24:28;;;;;;;197.43;52.90;;;1.50;91.40;;;;;;5054436;28;20036;-83
2020/12/24 20:26:54;;;;;;;209.70;55.58;;;1.50;91.50;;;;;;5054370;28;20029;-82
2020/12/24 20:29:20;;;;;;;260.52;62.85;;;1.60;91.40;;;;;;5055415;28;20041;-83
2020/12/24 20:31:49;;;;;;;252.00;63.65;;;1.60;91.40;;;;;;5053970;28;20136;-83
2020/12/24 20:34:15;;;;;;;247.77;60.95;;;1.60;91.40;;;;;;5055966;28;20021;-82
2020/12/24 20:36:41;;;;;;;289.90;65.07;;;1.60;91.40;;;;;;5054073;28;20025;-83
2020/12/24 20:39:07;;;;;;;255.55;61.83;;;1.60;91.40;;;;;;5054503;28;20071;-83
2020/12/24 20:41:33;;;;;;;263.75;62.33;;;1.60;91.40;;;;;;5054225;28;20028;-83
2020/12/24 20:43:59;;;;;;;287.73;63.53;;;1.60;91.30;;;;;;5053935;28;20124;-83
2020/12/24 20:46:25;;;;;;;308.20;67.35;;;1.60;91.30;;;;;;5055775;28;20075;-83
2020/12/24 20:48:51;;;;;;;253.38;58.47;;;1.60;91.30;;;;;;5054020;28;20033;-83
2020/12/24 20:51:16;;;;;;;287.70;65.30;;;1.60;91.30;;;;;;5055187;28;20029;-82
2020/12/24 20:53:43;;;;;;;267.23;58.80;;;1.60;91.30;;;;;;5053933;28;20371;-83
2020/12/24 20:56:09;;;;;;;242.32;55.65;;;1.60;91.20;;;;;;5055119;28;20044;-83
2020/12/24 20:58:35;;;;;;;231.60;55.20;;;1.60;91.20;;;;;;5055238;28;20045;-83
2020/12/24 21:01:00;;;;;;;252.73;59.85;;;1.60;91.20;;;;;;5054059;28;20470;-83
2020/12/24 21:03:26;;;;;;;266.50;61.42;;;1.60;91.30;;;;;;5053930;28;20067;-83
2020/12/24 21:05:52;;;;;;;214.75;51.70;;;1.60;91.30;;;;;;5053858;28;20033;-83
2020/12/24 21:08:17;;;;;;;287.55;62.35;;;1.60;91.30;;;;;;5053684;28;20075;-83
2020/12/24 21:10:43;;;;;;;281.55;61.90;;;1.60;91.30;;;;;;5054737;28;20082;-84
2020/12/24 21:13:09;;;;;;;231.95;58.22;;;1.60;91.30;;;;;;5054801;28;20036;-83
2020/12/24 21:15:34;;;;;;;266.83;64.28;;;1.60;91.30;;;;;;5053544;28;20029;-81
2020/12/24 21:18:00;;;;;;;212.60;56.33;;;1.60;91.30;;;;;;5054737;28;20100;-83
2020/12/24 21:20:26;;;;;;;160.02;46.58;;;1.60;91.20;;;;;;5053261;28;20039;-82
2020/12/24 21:22:52;;;;;;;155.38;43.10;;;1.70;91.30;;;;;;5054621;28;20029;-82
2020/12/24 21:25:18;;;;;;;172.80;47.08;;;1.70;91.20;;;;;;5053181;28;20056;-82
2020/12/24 21:27:46;;;;;;;188.25;46.25;;;1.70;91.30;;;;;;5053055;28;20040;-80
2020/12/24 21:30:13;;;;;;;195.68;50.65;;;1.70;91.20;;;;;;5054172;28;20511;-82
2020/12/24 21:32:38;;;;;;;220.15;54.75;;;1.80;91.20;;;;;;5054466;28;20079;-83
2020/12/24 21:35:04;;;;;;;193.52;49.40;;;1.70;91.10;;;;;;5050296;28;20029;-82
2020/12/24 21:37:30;;;;;;;218.93;56.10;;;1.70;91.20;;;;;;5033165;28;20029;-82
2020/12/24 21:39:55;;;;;;;209.07;55.28;;;1.70;91.20;;;;;;5033840;28;20021;-83
2020/12/24 21:42:21;;;;;;;192.98;54.20;;;1.80;91.30;;;;;;5033244;28;20053;-82
2020/12/24 21:44:47;;;;;;;207.10;53.10;;;1.70;91.30;;;;;;5033013;28;20032;-82
2020/12/24 21:47:12;;;;;;;169.45;46.80;;;1.80;91.30;;;;;;5034516;28;20018;-82
2020/12/24 21:49:38;;;;;;;209.68;53.58;;;1.80;91.20;;;;;;5034415;28;20022;-80
2020/12/24 21:52:05;;;;;;;191.95;50.15;;;1.80;91.20;;;;;;5032755;28;20060;-79
2020/12/24 21:54:32;;;;;;;179.48;50.03;;;1.80;91.20;;;;;;5034091;28;20028;-79
2020/12/24 21:56:57;;;;;;;173.88;46.88;;;1.90;91.20;;;;;;5034046;28;20021;-78
2020/12/24 21:59:23;;;;;;;182.15;47.53;;;1.90;91.10;;;;;;5034033;28;20025;-79
2020/12/24 22:01:53;;;;;;;188.40;47.60;;;1.90;91.10;;;;;;5034234;28;20594;-80
2020/12/24 22:04:20;;;;;;;159.73;44.17;;;1.90;91.00;;;;;;5032816;28;20499;-80
2020/12/24 22:06:46;;;;;;;141.00;39.38;;;1.90;90.90;;;;;;5032819;28;20372;-80
2020/12/24 22:09:12;;;;;;;106.90;36.13;;;2.00;91.00;;;;;;5033869;28;20056;-81
2020/12/24 22:11:38;;;;;;;121.35;37.20;;;1.90;90.90;;;;;;5033877;28;20384;-81
2020/12/24 22:14:04;;;;;;;135.00;41.05;;;1.90;91.00;;;;;;5034273;28;20021;-82